Kankakee, Illinois
Current Conditions -  °F | °C
As of 5:55 AM on Thursday 27 Nov 2014 (Local Time) from KJOT Reporting Station
Haze Haze  
Wind Chill: 15°   Ceiling: 6500
Heat Index: 21°   Visibility: 4mi
Dew Point: 18°   Wind: 5mph
Humidity: 87%   Direction: 290°WNW
Pressure: 30.29"   Gusts: NA
Location:  41.12°N, 87.86°W
Report Text: KJOT 271155Z AUTO 29004KT 4SM BR OVC065 M06/M08 A3029 RMK AO2 T10591078 11030 21059
Loading
Personal Weather Stations






























Interactive Weather Map New forecast layout! Learn more

10-Day Weather Forecast

Advertisements
Track Severe Weather on mobile